Time;durP1;ratioP1;P1;durP2;ratioP2;P2;SDS_P1;SDS_P2;PMS_P1;PMS_P2;Temp;Humidity;BMP_temperature;BMP_pressure;BME280_temperature;BME280_humidity;BME280_pressure;Samples;Min_cycle;Max_cycle;Signal;HPM_P1;HPM_P2
2023/06/10 00:01:47;;;;;;;14.57;9.32;;;;;;;;;;5050284;28;20063;-77
2023/06/10 00:04:16;;;;;;;17.75;9.77;;;;;;;;;;5049991;28;20401;-77
2023/06/10 00:06:43;;;;;;;17.42;9.98;;;;;;;;;;5034809;28;20029;-77
2023/06/10 00:09:10;;;;;;;16.27;9.93;;;;;;;;;;5049892;28;20470;-76
2023/06/10 00:11:36;;;;;;;19.15;9.75;;;;;;;;;;5033173;28;20029;-78
2023/06/10 00:14:01;;;;;;;17.25;10.45;;;;;;;;;;5034710;28;20021;-77
2023/06/10 00:16:27;;;;;;;16.40;10.20;;;;;;;;;;5050258;28;20028;-77
2023/06/10 00:18:52;;;;;;;14.32;9.15;;;;;;;;;;5033223;28;20030;-78
2023/06/10 00:21:18;;;;;;;18.40;10.07;;;;;;;;;;5034793;28;20032;-78
2023/06/10 00:23:44;;;;;;;18.98;10.65;;;;;;;;;;5034539;28;20025;-78
2023/06/10 00:26:10;;;;;;;18.90;10.63;;;;;;;;;;5034517;28;20526;-78
2023/06/10 00:28:35;;;;;;;22.30;10.38;;;;;;;;;;5034448;28;20494;-77
2023/06/10 00:31:01;;;;;;;14.70;10.63;;;;;;;;;;5049751;28;20505;-77
2023/06/10 00:33:26;;;;;;;17.83;10.88;;;;;;;;;;5016487;28;20067;-78
2023/06/10 00:35:52;;;;;;;19.88;11.65;;;;;;;;;;5034602;28;20095;-78
2023/06/10 00:38:17;;;;;;;19.63;11.77;;;;;;;;;;5034168;28;20069;-78
2023/06/10 00:40:43;;;;;;;19.17;11.13;;;;;;;;;;5033031;28;20036;-78
2023/06/10 00:43:08;;;;;;;22.38;12.82;;;;;;;;;;5034289;28;20017;-77
2023/06/10 00:45:34;;;;;;;21.88;12.38;;;;;;;;;;5034414;28;20115;-78
2023/06/10 00:48:00;;;;;;;18.25;12.77;;;;;;;;;;5033677;28;20055;-78
2023/06/10 00:50:25;;;;;;;24.75;12.05;;;;;;;;;;5049553;28;20029;-76
2023/06/10 00:52:51;;;;;;;17.38;11.70;;;;;;;;;;5016632;28;20025;-77
2023/06/10 00:55:17;;;;;;;22.45;13.05;;;;;;;;;;5030589;28;20030;-77
2023/06/10 00:57:48;;;;;;;25.00;12.40;;;;;;;;;;4999810;28;20042;-76
2023/06/10 01:00:15;;;;;;;22.08;12.75;;;;;;;;;;5016456;28;20108;-78
2023/06/10 01:02:40;;;;;;;20.20;12.55;;;;;;;;;;5033923;28;20036;-77
2023/06/10 01:05:06;;;;;;;22.08;12.32;;;;;;;;;;5034116;28;20371;-76
2023/06/10 01:07:43;;;;;;;26.85;12.10;;;;;;;;;;5016396;28;20068;-76
2023/06/10 01:10:09;;;;;;;21.40;12.75;;;;;;;;;;5033771;28;20030;-78
2023/06/10 01:12:56;;;;;;;25.50;12.63;;;;;;;;;;5033797;28;20026;-76
2023/06/10 01:15:22;;;;;;;23.92;12.75;;;;;;;;;;5019229;28;20037;-76
2023/06/10 01:18:01;;;;;;;23.13;12.95;;;;;;;;;;5016080;28;20037;-76
2023/06/10 01:20:27;;;;;;;22.55;13.18;;;;;;;;;;5049081;28;20463;-76
2023/06/10 01:22:55;;;;;;;19.20;12.13;;;;;;;;;;4999619;28;20037;-76
2023/06/10 01:25:27;;;;;;;23.17;12.27;;;;;;;;;;5033753;28;20444;-76
2023/06/10 01:27:54;;;;;;;25.40;13.95;;;;;;;;;;5016819;28;20447;-78
2023/06/10 01:30:22;;;;;;;21.67;12.75;;;;;;;;;;5049137;28;20379;-77
2023/06/10 01:32:51;;;;;;;24.45;12.38;;;;;;;;;;5016728;28;20037;-77
2023/06/10 01:35:16;;;;;;;25.77;12.40;;;;;;;;;;5049001;28;20115;-77
2023/06/10 01:37:43;;;;;;;25.25;13.15;;;;;;;;;;5032718;28;20146;-77
2023/06/10 01:40:09;;;;;;;27.10;13.43;;;;;;;;;;5032508;28;20146;-76
2023/06/10 01:42:35;;;;;;;24.35;12.60;;;;;;;;;;5016241;28;20018;-77
2023/06/10 01:45:00;;;;;;;23.88;12.27;;;;;;;;;;5015944;28;20071;-76
2023/06/10 01:47:26;;;;;;;19.17;12.27;;;;;;;;;;5015971;28;20025;-77
2023/06/10 01:49:51;;;;;;;23.70;12.25;;;;;;;;;;5033505;28;20362;-77
2023/06/10 01:52:17;;;;;;;18.63;11.73;;;;;;;;;;5016345;28;20428;-77
2023/06/10 01:54:42;;;;;;;21.35;12.63;;;;;;;;;;4999696;28;20059;-77
2023/06/10 01:57:07;;;;;;;24.80;12.35;;;;;;;;;;5031121;28;20036;-77
2023/06/10 01:59:33;;;;;;;20.92;12.38;;;;;;;;;;5048361;28;20082;-77
2023/06/10 02:01:58;;;;;;;23.45;12.45;;;;;;;;;;4999311;28;20059;-78
2023/06/10 02:04:24;;;;;;;26.67;12.90;;;;;;;;;;5015930;28;20033;-77
2023/06/10 02:06:50;;;;;;;26.38;13.23;;;;;;;;;;5033248;28;20167;-76
2023/06/10 02:09:15;;;;;;;26.45;13.55;;;;;;;;;;5033337;28;20033;-77
2023/06/10 02:11:41;;;;;;;20.75;12.30;;;;;;;;;;5016537;28;20026;-77
2023/06/10 02:14:06;;;;;;;22.75;12.15;;;;;;;;;;5018943;28;20068;-78
2023/06/10 02:16:32;;;;;;;22.27;11.85;;;;;;;;;;5019229;28;20032;-78
2023/06/10 02:18:57;;;;;;;23.23;11.93;;;;;;;;;;5019122;28;20448;-78
2023/06/10 02:21:23;;;;;;;17.95;11.13;;;;;;;;;;5019367;28;20025;-77
2023/06/10 02:23:48;;;;;;;22.42;11.63;;;;;;;;;;5036743;28;20083;-78
2023/06/10 02:26:13;;;;;;;20.45;12.50;;;;;;;;;;5019288;28;20096;-78
2023/06/10 02:28:42;;;;;;;19.75;11.07;;;;;;;;;;5036743;28;20037;-77
2023/06/10 02:31:08;;;;;;;20.35;11.32;;;;;;;;;;5036943;28;20403;-78
2023/06/10 02:33:33;;;;;;;22.40;10.52;;;;;;;;;;5052329;28;20048;-78
2023/06/10 02:35:59;;;;;;;27.20;10.82;;;;;;;;;;5019051;28;20032;-77
2023/06/10 02:38:24;;;;;;;20.88;10.40;;;;;;;;;;5036428;28;20037;-77
2023/06/10 02:40:50;;;;;;;17.15;10.38;;;;;;;;;;5036497;28;20032;-77
2023/06/10 02:43:15;;;;;;;24.92;10.27;;;;;;;;;;5036364;28;20360;-78
2023/06/10 02:45:40;;;;;;;20.23;10.82;;;;;;;;;;5036371;28;20032;-78
2023/06/10 02:48:06;;;;;;;20.05;9.80;;;;;;;;;;5018493;28;20323;-77
2023/06/10 02:50:31;;;;;;;21.15;10.43;;;;;;;;;;5018506;28;20045;-77
2023/06/10 02:52:57;;;;;;;22.23;10.48;;;;;;;;;;5036377;28;20032;-78
2023/06/10 02:55:26;;;;;;;17.08;10.73;;;;;;;;;;5036444;28;20029;-78
2023/06/10 02:57:52;;;;;;;15.35;10.10;;;;;;;;;;5018726;28;20141;-78
2023/06/10 03:00:20;;;;;;;16.15;10.18;;;;;;;;;;5011311;28;20048;-78
2023/06/10 03:02:45;;;;;;;14.70;9.57;;;;;;;;;;5036075;28;20083;-77
2023/06/10 03:05:12;;;;;;;19.05;10.02;;;;;;;;;;5034837;28;20025;-77
2023/06/10 03:07:38;;;;;;;17.80;10.27;;;;;;;;;;5051464;28;20021;-78
2023/06/10 03:10:05;;;;;;;20.42;10.38;;;;;;;;;;5051794;28;20031;-78
2023/06/10 03:12:30;;;;;;;22.38;10.68;;;;;;;;;;5034976;28;20033;-78
2023/06/10 03:14:56;;;;;;;24.55;10.40;;;;;;;;;;5034651;28;20021;-78
2023/06/10 03:17:21;;;;;;;18.67;10.50;;;;;;;;;;5036086;28;20029;-78
2023/06/10 03:19:47;;;;;;;19.00;10.27;;;;;;;;;;5035912;28;20431;-77
2023/06/10 03:22:16;;;;;;;24.92;10.80;;;;;;;;;;5035655;28;20407;-78
2023/06/10 03:24:43;;;;;;;21.95;10.93;;;;;;;;;;5050467;28;20037;-77
2023/06/10 03:27:13;;;;;;;18.60;10.27;;;;;;;;;;5034159;28;20055;-78
2023/06/10 03:29:38;;;;;;;24.30;11.52;;;;;;;;;;5050912;28;20069;-79
2023/06/10 03:32:04;;;;;;;21.15;10.75;;;;;;;;;;5035488;28;20060;-78
2023/06/10 03:34:29;;;;;;;19.98;11.40;;;;;;;;;;5034439;28;20060;-78
2023/06/10 03:36:56;;;;;;;24.77;11.02;;;;;;;;;;5035399;28;20025;-79
2023/06/10 03:39:21;;;;;;;17.42;11.05;;;;;;;;;;5050679;28;20439;-78
2023/06/10 03:41:47;;;;;;;19.50;10.90;;;;;;;;;;5033823;28;20044;-78
2023/06/10 03:44:12;;;;;;;22.92;11.63;;;;;;;;;;5035476;28;20049;-78
2023/06/10 03:46:38;;;;;;;22.83;11.13;;;;;;;;;;5035575;28;20030;-78
2023/06/10 03:49:03;;;;;;;21.88;11.57;;;;;;;;;;5035394;28;20428;-78
2023/06/10 03:51:29;;;;;;;21.88;11.07;;;;;;;;;;5035161;28;20026;-79
2023/06/10 03:53:54;;;;;;;18.23;11.35;;;;;;;;;;5035145;28;20359;-77
2023/06/10 03:56:20;;;;;;;20.70;10.52;;;;;;;;;;5050184;28;20033;-78
2023/06/10 03:58:45;;;;;;;22.92;10.15;;;;;;;;;;5035256;28;20087;-77
2023/06/10 04:01:13;;;;;;;21.88;10.27;;;;;;;;;;5033681;28;20075;-78
2023/06/10 04:03:39;;;;;;;19.15;10.23;;;;;;;;;;5050464;28;20045;-78
2023/06/10 04:06:04;;;;;;;18.75;9.65;;;;;;;;;;5034200;28;20104;-77
2023/06/10 04:08:31;;;;;;;22.38;9.63;;;;;;;;;;5035111;28;20120;-78
2023/06/10 04:10:57;;;;;;;20.50;8.82;;;;;;;;;;5034757;28;20088;-77
2023/06/10 04:13:23;;;;;;;20.10;8.60;;;;;;;;;;5034660;28;20058;-77
2023/06/10 04:15:48;;;;;;;15.35;7.90;;;;;;;;;;5034760;28;20026;-77
2023/06/10 04:18:13;;;;;;;18.10;8.88;;;;;;;;;;5034773;28;20034;-77
2023/06/10 04:20:39;;;;;;;16.65;8.68;;;;;;;;;;5034624;28;20033;-79
2023/06/10 04:23:04;;;;;;;14.00;8.63;;;;;;;;;;5050027;28;20030;-78
2023/06/10 04:25:30;;;;;;;17.10;8.60;;;;;;;;;;5033022;28;20036;-77
2023/06/10 04:27:55;;;;;;;19.20;8.20;;;;;;;;;;5034706;28;20029;-78
2023/06/10 04:30:21;;;;;;;17.90;8.98;;;;;;;;;;5034453;28;20036;-78
2023/06/10 04:32:47;;;;;;;18.33;7.82;;;;;;;;;;5034354;28;20029;-78
2023/06/10 04:35:13;;;;;;;19.67;8.15;;;;;;;;;;5049175;28;20025;-77
2023/06/10 04:37:39;;;;;;;16.15;7.43;;;;;;;;;;5033037;28;20029;-77
2023/06/10 04:40:06;;;;;;;14.70;7.10;;;;;;;;;;5033996;28;20025;-79
2023/06/10 04:42:31;;;;;;;11.45;7.03;;;;;;;;;;5034240;28;20030;-78
2023/06/10 04:44:57;;;;;;;11.15;6.65;;;;;;;;;;5034309;28;20058;-78
2023/06/10 04:47:22;;;;;;;20.33;7.65;;;;;;;;;;5034171;28;20025;-79
2023/06/10 04:49:48;;;;;;;10.23;6.20;;;;;;;;;;5034024;28;20053;-79
2023/06/10 04:52:13;;;;;;;12.93;6.85;;;;;;;;;;5049482;28;20029;-77
2023/06/10 04:54:39;;;;;;;11.30;6.13;;;;;;;;;;5032497;28;20033;-78
2023/06/10 04:57:07;;;;;;;11.25;7.32;;;;;;;;;;5032878;28;20380;-78
2023/06/10 04:59:33;;;;;;;14.55;6.43;;;;;;;;;;5034252;28;20551;-78
2023/06/10 05:01:58;;;;;;;10.38;6.60;;;;;;;;;;5032783;28;20112;-78
2023/06/10 05:04:24;;;;;;;11.85;6.78;;;;;;;;;;5015686;28;20076;-79
2023/06/10 05:06:49;;;;;;;12.75;6.80;;;;;;;;;;5049167;28;20037;-78
2023/06/10 05:09:15;;;;;;;12.32;7.28;;;;;;;;;;5033609;28;20022;-77
2023/06/10 05:11:40;;;;;;;15.13;7.13;;;;;;;;;;5016356;28;20083;-78
2023/06/10 05:14:06;;;;;;;13.63;7.20;;;;;;;;;;4999722;28;20099;-77
2023/06/10 05:16:31;;;;;;;14.25;7.72;;;;;;;;;;5033733;28;20021;-78
2023/06/10 05:18:57;;;;;;;17.67;6.75;;;;;;;;;;5033810;28;20087;-77
2023/06/10 05:21:22;;;;;;;13.43;6.72;;;;;;;;;;5016514;28;20029;-77
2023/06/10 05:23:48;;;;;;;14.63;6.97;;;;;;;;;;5033639;28;20037;-77
2023/06/10 05:26:14;;;;;;;10.60;6.15;;;;;;;;;;5033785;28;20036;-78
2023/06/10 05:28:39;;;;;;;13.10;6.05;;;;;;;;;;5033821;28;20022;-77
2023/06/10 05:31:04;;;;;;;13.27;6.40;;;;;;;;;;5033664;28;20371;-78
2023/06/10 05:33:30;;;;;;;10.15;5.80;;;;;;;;;;4999551;28;20037;-80
2023/06/10 05:35:55;;;;;;;9.80;6.10;;;;;;;;;;5015999;28;20099;-79
2023/06/10 05:38:21;;;;;;;11.13;6.20;;;;;;;;;;5033615;28;20041;-79
2023/06/10 05:40:46;;;;;;;11.27;5.75;;;;;;;;;;5033843;28;20527;-79
2023/06/10 05:43:12;;;;;;;14.45;5.85;;;;;;;;;;5016148;28;20434;-78
2023/06/10 05:45:37;;;;;;;9.25;5.82;;;;;;;;;;4999431;28;20435;-78
2023/06/10 05:48:03;;;;;;;23.08;6.22;;;;;;;;;;5035625;28;20053;-78
2023/06/10 05:50:28;;;;;;;10.90;6.35;;;;;;;;;;5037671;28;20398;-80
2023/06/10 05:52:54;;;;;;;10.30;5.40;;;;;;;;;;5003119;28;20045;-79
2023/06/10 05:55:20;;;;;;;9.45;5.25;;;;;;;;;;5019796;28;20034;-77
2023/06/10 05:57:45;;;;;;;12.75;5.03;;;;;;;;;;5037467;28;20029;-79
2023/06/10 06:00:11;;;;;;;8.68;5.32;;;;;;;;;;5019694;28;20086;-76
2023/06/10 06:02:37;;;;;;;10.63;4.63;;;;;;;;;;5019752;28;20033;-76
2023/06/10 06:05:02;;;;;;;10.15;4.95;;;;;;;;;;5034952;28;20116;-77
2023/06/10 06:07:28;;;;;;;9.13;4.65;;;;;;;;;;5018846;28;20048;-77
2023/06/10 06:09:53;;;;;;;6.22;4.30;;;;;;;;;;5019475;28;20029;-78
2023/06/10 06:12:19;;;;;;;10.02;4.40;;;;;;;;;;5019357;28;20379;-77
2023/06/10 06:14:44;;;;;;;7.30;4.43;;;;;;;;;;5037582;28;20033;-78
2023/06/10 06:17:10;;;;;;;10.35;4.30;;;;;;;;;;5036776;28;20065;-77
2023/06/10 06:19:35;;;;;;;8.50;4.32;;;;;;;;;;5035610;28;20122;-77
2023/06/10 06:22:01;;;;;;;6.35;4.05;;;;;;;;;;5036579;28;20030;-78
2023/06/10 06:24:26;;;;;;;11.80;4.35;;;;;;;;;;5036973;28;20041;-77
2023/06/10 06:26:51;;;;;;;9.20;4.00;;;;;;;;;;5019098;28;20033;-77
2023/06/10 06:29:17;;;;;;;7.70;4.60;;;;;;;;;;5035764;28;20045;-77
2023/06/10 06:31:43;;;;;;;8.30;4.30;;;;;;;;;;5019030;28;20044;-78
2023/06/10 06:34:08;;;;;;;7.55;4.15;;;;;;;;;;5035470;28;20366;-77
2023/06/10 06:36:34;;;;;;;7.80;3.90;;;;;;;;;;5036369;28;20075;-76
2023/06/10 06:39:00;;;;;;;7.63;3.72;;;;;;;;;;5019010;28;20045;-78
2023/06/10 06:41:28;;;;;;;5.93;3.58;;;;;;;;;;5035787;28;20033;-77
2023/06/10 06:43:54;;;;;;;5.15;3.50;;;;;;;;;;5019319;28;20029;-78
2023/06/10 06:46:21;;;;;;;4.72;3.40;;;;;;;;;;5018754;28;20065;-76
2023/06/10 06:48:46;;;;;;;5.45;3.53;;;;;;;;;;5036183;28;20049;-77
2023/06/10 06:51:12;;;;;;;6.57;3.78;;;;;;;;;;5018949;28;20447;-77
2023/06/10 06:53:43;;;;;;;5.45;3.67;;;;;;;;;;5018662;28;20026;-77
2023/06/10 06:56:09;;;;;;;7.07;3.50;;;;;;;;;;5019910;28;20045;-77
2023/06/10 06:58:35;;;;;;;4.30;3.33;;;;;;;;;;5016697;28;20061;-79
2023/06/10 07:01:00;;;;;;;5.15;3.40;;;;;;;;;;5036062;28;20116;-79
2023/06/10 07:03:25;;;;;;;7.07;3.58;;;;;;;;;;5017999;28;20045;-77
2023/06/10 07:05:51;;;;;;;6.03;3.60;;;;;;;;;;5036260;28;20040;-79
2023/06/10 07:08:19;;;;;;;4.35;3.72;;;;;;;;;;5033882;28;20033;-79
2023/06/10 07:10:45;;;;;;;;;;;;;;;;;;5036299;28;20036;-77
2023/06/10 07:13:10;;;;;;;4.43;3.57;;;;;;;;;;5018128;28;20236;-78
2023/06/10 07:15:35;;;;;;;4.78;3.20;;;;;;;;;;5036357;28;20280;-78
2023/06/10 07:18:01;;;;;;;3.83;3.10;;;;;;;;;;5017953;28;20033;-78
2023/06/10 07:20:26;;;;;;;6.72;3.15;;;;;;;;;;5035498;28;20030;-79
2023/06/10 07:22:52;;;;;;;7.25;3.20;;;;;;;;;;5018113;28;20030;-76
2023/06/10 07:25:17;;;;;;;6.50;3.10;;;;;;;;;;5035923;28;20033;-76
2023/06/10 07:27:43;;;;;;;7.47;3.67;;;;;;;;;;5035621;28;20124;-77
2023/06/10 07:30:09;;;;;;;5.47;3.38;;;;;;;;;;5018062;28;20025;-76
2023/06/10 07:32:34;;;;;;;4.55;3.35;;;;;;;;;;5035788;28;20057;-76
2023/06/10 07:35:00;;;;;;;6.25;3.28;;;;;;;;;;5001229;28;20068;-76
2023/06/10 07:37:25;;;;;;;3.60;3.30;;;;;;;;;;5035472;28;20040;-75
2023/06/10 07:39:50;;;;;;;4.00;3.05;;;;;;;;;;5050792;28;20487;-75
2023/06/10 07:42:16;;;;;;;3.53;3.22;;;;;;;;;;5017757;28;20375;-78
2023/06/10 07:44:41;;;;;;;4.05;2.83;;;;;;;;;;5017837;28;20451;-78
2023/06/10 07:47:07;;;;;;;3.97;3.30;;;;;;;;;;5035534;28;20036;-78
2023/06/10 07:49:32;;;;;;;3.60;3.03;;;;;;;;;;5013818;28;20092;-78
2023/06/10 07:51:58;;;;;;;7.32;3.40;;;;;;;;;;5015920;28;20030;-78
2023/06/10 07:54:23;;;;;;;6.18;3.40;;;;;;;;;;5015660;28;20026;-79
2023/06/10 07:56:48;;;;;;;4.38;3.30;;;;;;;;;;5014080;28;20456;-78
2023/06/10 07:59:14;;;;;;;3.97;3.17;;;;;;;;;;5047024;28;20474;-77
2023/06/10 08:01:39;;;;;;;4.13;3.22;;;;;;;;;;5013808;28;20026;-78
2023/06/10 08:04:05;;;;;;;3.65;3.13;;;;;;;;;;5037542;28;20466;-77
2023/06/10 08:06:31;;;;;;;5.35;3.47;;;;;;;;;;4996024;28;20411;-78
2023/06/10 08:08:56;;;;;;;6.25;3.22;;;;;;;;;;4995550;28;20120;-78
2023/06/10 08:11:21;;;;;;;4.63;3.30;;;;;;;;;;4994642;28;20037;-78
2023/06/10 08:13:47;;;;;;;6.07;3.40;;;;;;;;;;4995518;28;20033;-78
2023/06/10 08:16:12;;;;;;;8.85;3.20;;;;;;;;;;4994956;28;20022;-78
2023/06/10 08:18:38;;;;;;;3.42;3.13;;;;;;;;;;4995391;28;20432;-79
2023/06/10 08:21:03;;;;;;;3.75;3.20;;;;;;;;;;4977737;28;20038;-79
2023/06/10 08:23:29;;;;;;;4.22;3.30;;;;;;;;;;5026520;28;20038;-79
2023/06/10 08:25:54;;;;;;;5.57;3.15;;;;;;;;;;5014328;28;20056;-78
2023/06/10 08:28:20;;;;;;;6.40;3.22;;;;;;;;;;5001489;28;20476;-78
2023/06/10 08:30:45;;;;;;;4.03;2.90;;;;;;;;;;5009017;28;20042;-79
2023/06/10 08:33:10;;;;;;;7.80;3.00;;;;;;;;;;5013561;28;20026;-79
2023/06/10 08:35:36;;;;;;;6.38;3.20;;;;;;;;;;4994602;28;20035;-78
2023/06/10 08:38:02;;;;;;;3.85;3.10;;;;;;;;;;5009726;28;20045;-78
2023/06/10 08:40:27;;;;;;;5.82;3.30;;;;;;;;;;4993670;28;20053;-78
2023/06/10 08:43:10;;;;;;;3.95;3.47;;;;;;;;;;5026100;28;20026;-80
2023/06/10 08:45:36;;;;;;;5.07;3.00;;;;;;;;;;4994210;28;20429;-78
2023/06/10 08:48:08;;;;;;;7.63;2.95;;;;;;;;;;5030332;28;20053;-78
2023/06/10 08:50:37;;;;;;;3.17;2.88;;;;;;;;;;5045004;28;20034;-78
2023/06/10 08:53:04;;;;;;;7.00;3.03;;;;;;;;;;5046308;28;20064;-81
2023/06/10 08:55:31;;;;;;;4.57;3.42;;;;;;;;;;5029758;28;20037;-78
2023/06/10 08:57:59;;;;;;;7.45;3.20;;;;;;;;;;5029369;28;20131;-78
2023/06/10 09:00:24;;;;;;;3.67;3.20;;;;;;;;;;5045578;28;20033;-77
2023/06/10 09:02:50;;;;;;;6.18;3.33;;;;;;;;;;5013057;28;20036;-77
2023/06/10 09:05:15;;;;;;;3.38;3.08;;;;;;;;;;5029401;28;20037;-78
2023/06/10 09:07:41;;;;;;;5.25;3.40;;;;;;;;;;5012960;28;20088;-78
2023/06/10 09:10:07;;;;;;;3.53;3.22;;;;;;;;;;5046034;28;20120;-78
2023/06/10 09:12:35;;;;;;;5.60;3.25;;;;;;;;;;5006458;28;20364;-78
2023/06/10 09:15:01;;;;;;;5.47;2.97;;;;;;;;;;5009636;28;20037;-78
2023/06/10 09:17:27;;;;;;;6.57;3.38;;;;;;;;;;4993115;28;20038;-78
2023/06/10 09:19:55;;;;;;;5.15;3.42;;;;;;;;;;5025850;28;20044;-78
2023/06/10 09:22:23;;;;;;;4.07;3.47;;;;;;;;;;4993905;28;20104;-78
2023/06/10 09:24:49;;;;;;;6.35;3.58;;;;;;;;;;5025056;28;20056;-78
2023/06/10 09:27:15;;;;;;;5.13;3.20;;;;;;;;;;5025813;28;20089;-77
2023/06/10 09:29:48;;;;;;;5.35;3.10;;;;;;;;;;4994763;28;20049;-78
2023/06/10 09:32:13;;;;;;;4.60;3.78;;;;;;;;;;4993132;28;20026;-77
2023/06/10 09:34:39;;;;;;;4.97;3.53;;;;;;;;;;4994238;28;20031;-78
2023/06/10 09:37:04;;;;;;;5.32;3.15;;;;;;;;;;5009339;28;20042;-78
2023/06/10 09:39:30;;;;;;;8.05;3.70;;;;;;;;;;4991329;28;20049;-78
2023/06/10 09:41:55;;;;;;;7.03;3.80;;;;;;;;;;4993761;28;20027;-78
2023/06/10 09:44:21;;;;;;;5.10;3.70;;;;;;;;;;5024493;28;20484;-78
2023/06/10 09:46:47;;;;;;;4.30;3.75;;;;;;;;;;4993974;28;20113;-78
2023/06/10 09:49:13;;;;;;;4.18;3.78;;;;;;;;;;5007496;28;20411;-79
2023/06/10 09:51:49;;;;;;;4.65;3.50;;;;;;;;;;5012718;28;20037;-77
2023/06/10 09:54:15;;;;;;;5.80;3.58;;;;;;;;;;5045430;28;20045;-78
2023/06/10 09:56:42;;;;;;;5.50;3.40;;;;;;;;;;5029036;28;20415;-78
2023/06/10 09:59:08;;;;;;;7.60;3.42;;;;;;;;;;5011811;28;20040;-78
2023/06/10 10:01:34;;;;;;;4.15;3.30;;;;;;;;;;5026233;28;20029;-79
2023/06/10 10:04:00;;;;;;;7.88;3.92;;;;;;;;;;5042520;28;20026;-79
2023/06/10 10:06:26;;;;;;;4.25;3.78;;;;;;;;;;5010880;28;20080;-78
2023/06/10 10:08:51;;;;;;;4.38;3.40;;;;;;;;;;5042436;28;20026;-78
2023/06/10 10:11:18;;;;;;;6.53;3.75;;;;;;;;;;5042230;28;20022;-78
2023/06/10 10:13:47;;;;;;;4.50;3.20;;;;;;;;;;5026392;28;20148;-77
2023/06/10 10:16:35;;;;;;;4.72;3.53;;;;;;;;;;5025564;28;20458;-79
2023/06/10 10:19:23;;;;;;;5.80;3.58;;;;;;;;;;5013103;28;20041;-77
2023/06/10 10:21:59;;;;;;;6.32;3.80;;;;;;;;;;5012232;28;20029;-77
2023/06/10 10:24:33;;;;;;;4.43;3.30;;;;;;;;;;5028990;28;20021;-78
2023/06/10 10:26:58;;;;;;;4.18;3.78;;;;;;;;;;5012005;28;20431;-78
2023/06/10 10:29:29;;;;;;;3.50;3.20;;;;;;;;;;5012276;28;20037;-78
2023/06/10 10:31:56;;;;;;;12.07;3.58;;;;;;;;;;5012349;28;20455;-78
2023/06/10 10:34:25;;;;;;;5.15;3.42;;;;;;;;;;4997632;28;20037;-78
2023/06/10 10:36:51;;;;;;;8.45;3.72;;;;;;;;;;5032385;28;20030;-77
2023/06/10 10:39:17;;;;;;;4.60;3.30;;;;;;;;;;5016833;28;20033;-77
2023/06/10 10:41:42;;;;;;;6.20;3.17;;;;;;;;;;5031742;28;20081;-78
2023/06/10 10:44:07;;;;;;;5.65;3.40;;;;;;;;;;5015528;28;20049;-78
2023/06/10 10:46:43;;;;;;;5.50;3.53;;;;;;;;;;5031907;28;20033;-78
2023/06/10 10:49:09;;;;;;;6.35;3.80;;;;;;;;;;5015313;28;20034;-77
2023/06/10 10:51:35;;;;;;;3.63;3.22;;;;;;;;;;5032036;28;20080;-77
2023/06/10 10:54:12;;;;;;;8.45;3.50;;;;;;;;;;5015460;28;20026;-78
2023/06/10 10:56:37;;;;;;;3.83;3.47;;;;;;;;;;5016780;28;20100;-78
2023/06/10 10:59:06;;;;;;;5.82;3.42;;;;;;;;;;5048476;28;20093;-78
2023/06/10 11:01:42;;;;;;;6.93;3.53;;;;;;;;;;5031721;28;20026;-78
2023/06/10 11:04:10;;;;;;;3.85;3.33;;;;;;;;;;5048400;28;20036;-78
2023/06/10 11:06:36;;;;;;;5.35;3.40;;;;;;;;;;5032060;28;20105;-77
2023/06/10 11:09:01;;;;;;;4.32;3.50;;;;;;;;;;5015029;28;20542;-77
2023/06/10 11:11:27;;;;;;;4.65;3.53;;;;;;;;;;5031155;28;20034;-78
2023/06/10 11:14:04;;;;;;;6.53;3.80;;;;;;;;;;5015160;28;20104;-78
2023/06/10 11:16:29;;;;;;;5.78;3.67;;;;;;;;;;5016082;28;20037;-77
2023/06/10 11:18:55;;;;;;;6.90;3.70;;;;;;;;;;5013076;28;20037;-77
2023/06/10 11:21:20;;;;;;;7.03;3.63;;;;;;;;;;5047823;28;20466;-78
2023/06/10 11:23:46;;;;;;;6.05;3.60;;;;;;;;;;5014649;28;20064;-78
2023/06/10 11:26:26;;;;;;;5.05;3.72;;;;;;;;;;5015563;28;20463;-77
2023/06/10 11:28:55;;;;;;;8.07;3.95;;;;;;;;;;5015715;28;20030;-78
2023/06/10 11:31:27;;;;;;;4.57;3.67;;;;;;;;;;5016159;28;20191;-77
2023/06/10 11:33:54;;;;;;;6.47;3.92;;;;;;;;;;5047966;28;20037;-79
2023/06/10 11:36:20;;;;;;;4.53;3.50;;;;;;;;;;5047579;28;20379;-77
2023/06/10 11:38:45;;;;;;;6.15;3.75;;;;;;;;;;5016080;28;20044;-76
2023/06/10 11:41:11;;;;;;;5.75;3.90;;;;;;;;;;5015337;28;20026;-78
2023/06/10 11:43:44;;;;;;;5.40;4.05;;;;;;;;;;4997989;28;20379;-77
2023/06/10 11:46:10;;;;;;;5.72;4.00;;;;;;;;;;5030092;28;20112;-78
2023/06/10 11:48:35;;;;;;;7.10;3.90;;;;;;;;;;5025096;28;20136;-77
2023/06/10 11:51:01;;;;;;;4.20;3.80;;;;;;;;;;5034119;28;20459;-77
2023/06/10 11:53:26;;;;;;;5.32;3.90;;;;;;;;;;5035138;28;20127;-77
2023/06/10 11:55:54;;;;;;;5.10;4.00;;;;;;;;;;5017640;28;20080;-78
2023/06/10 11:58:22;;;;;;;4.93;4.00;;;;;;;;;;5001166;28;20048;-77
2023/06/10 12:00:48;;;;;;;7.18;3.92;;;;;;;;;;5017742;28;20080;-78
2023/06/10 12:03:14;;;;;;;5.63;4.47;;;;;;;;;;5000927;28;20037;-77
2023/06/10 12:05:39;;;;;;;4.22;3.83;;;;;;;;;;5017569;28;20095;-77
2023/06/10 12:08:11;;;;;;;5.28;4.05;;;;;;;;;;5017188;28;20512;-78
2023/06/10 12:10:41;;;;;;;4.45;3.80;;;;;;;;;;5033697;28;20459;-77
2023/06/10 12:13:09;;;;;;;5.85;4.18;;;;;;;;;;5050138;28;20035;-77
2023/06/10 12:15:35;;;;;;;9.55;4.40;;;;;;;;;;5034027;28;20033;-77
2023/06/10 12:18:01;;;;;;;5.43;3.85;;;;;;;;;;5017277;28;20029;-78
2023/06/10 12:20:28;;;;;;;6.72;4.10;;;;;;;;;;5014859;28;20022;-77
2023/06/10 12:22:53;;;;;;;7.18;3.83;;;;;;;;;;5016647;28;20048;-77
2023/06/10 12:25:25;;;;;;;6.95;3.92;;;;;;;;;;5016840;28;20038;-77
2023/06/10 12:27:51;;;;;;;5.10;4.13;;;;;;;;;;5033372;28;20104;-77
2023/06/10 12:30:20;;;;;;;6.95;4.40;;;;;;;;;;5017154;28;20029;-77
2023/06/10 12:32:46;;;;;;;4.72;4.18;;;;;;;;;;5033274;28;20056;-78
2023/06/10 12:35:13;;;;;;;7.43;4.20;;;;;;;;;;5000538;28;20464;-78
2023/06/10 12:37:42;;;;;;;6.50;4.35;;;;;;;;;;5049909;28;20196;-77
2023/06/10 12:40:08;;;;;;;5.88;4.03;;;;;;;;;;5049970;28;20406;-77
2023/06/10 12:42:35;;;;;;;5.63;4.30;;;;;;;;;;5034216;28;20515;-77
2023/06/10 12:45:01;;;;;;;8.82;4.15;;;;;;;;;;5033103;28;20040;-78
2023/06/10 12:47:39;;;;;;;4.75;4.10;;;;;;;;;;5016729;28;20029;-77
2023/06/10 12:50:05;;;;;;;4.35;3.90;;;;;;;;;;5033083;28;20033;-77
2023/06/10 12:52:30;;;;;;;6.70;4.38;;;;;;;;;;5049169;28;20036;-78
2023/06/10 12:54:56;;;;;;;6.30;4.50;;;;;;;;;;5034101;28;20025;-77
2023/06/10 12:57:22;;;;;;;4.75;4.25;;;;;;;;;;5033357;28;20022;-77
2023/06/10 12:59:52;;;;;;;5.28;4.40;;;;;;;;;;5016370;28;20037;-78
2023/06/10 13:02:20;;;;;;;12.48;4.47;;;;;;;;;;5000801;28;20087;-78
2023/06/10 13:04:46;;;;;;;8.05;4.40;;;;;;;;;;5016856;28;20026;-77
2023/06/10 13:07:12;;;;;;;7.38;4.35;;;;;;;;;;5032745;28;20056;-78
2023/06/10 13:09:37;;;;;;;5.50;4.25;;;;;;;;;;5033878;28;20387;-80
2023/06/10 13:12:03;;;;;;;6.28;4.35;;;;;;;;;;5034099;28;20036;-78
2023/06/10 13:14:28;;;;;;;4.60;4.00;;;;;;;;;;5016562;28;20029;-78
2023/06/10 13:16:54;;;;;;;4.80;4.07;;;;;;;;;;5016404;28;20496;-79
2023/06/10 13:19:21;;;;;;;4.30;3.90;;;;;;;;;;5033972;28;20038;-76
2023/06/10 13:21:47;;;;;;;8.30;3.95;;;;;;;;;;5014770;28;20383;-77
2023/06/10 13:24:12;;;;;;;4.97;4.07;;;;;;;;;;5032597;28;20025;-75
2023/06/10 13:26:38;;;;;;;9.20;4.22;;;;;;;;;;5033790;28;20026;-77
2023/06/10 13:29:04;;;;;;;6.38;4.10;;;;;;;;;;5032388;28;20025;-76
2023/06/10 13:31:29;;;;;;;6.97;4.40;;;;;;;;;;5033537;28;20087;-76
2023/06/10 13:33:55;;;;;;;7.32;4.05;;;;;;;;;;5048932;28;20025;-77
2023/06/10 13:36:20;;;;;;;7.53;4.20;;;;;;;;;;5015647;28;20123;-75
2023/06/10 13:38:47;;;;;;;6.40;4.10;;;;;;;;;;5048833;28;20033;-76
2023/06/10 13:41:13;;;;;;;6.32;3.90;;;;;;;;;;5033462;28;20116;-77
2023/06/10 13:43:39;;;;;;;5.68;3.97;;;;;;;;;;5048770;28;20029;-77
2023/06/10 13:46:04;;;;;;;5.40;4.50;;;;;;;;;;5032193;28;20099;-76
2023/06/10 13:48:30;;;;;;;5.18;4.20;;;;;;;;;;5033276;28;20041;-76
2023/06/10 13:50:55;;;;;;;6.28;3.95;;;;;;;;;;5032928;28;20120;-76
2023/06/10 13:53:21;;;;;;;4.63;3.85;;;;;;;;;;5032164;28;20030;-76
2023/06/10 13:55:46;;;;;;;4.82;4.10;;;;;;;;;;5015771;28;20041;-76
2023/06/10 13:58:11;;;;;;;5.68;4.00;;;;;;;;;;5033265;28;20579;-76
2023/06/10 14:00:37;;;;;;;4.53;3.97;;;;;;;;;;5033389;28;20029;-76
2023/06/10 14:03:03;;;;;;;5.22;4.20;;;;;;;;;;5015711;28;20056;-76
2023/06/10 14:05:28;;;;;;;6.43;4.28;;;;;;;;;;5033044;28;20479;-76
2023/06/10 14:07:54;;;;;;;5.65;4.20;;;;;;;;;;5049925;28;20060;-77
2023/06/10 14:10:19;;;;;;;11.95;4.72;;;;;;;;;;5037107;28;20079;-76
2023/06/10 14:12:45;;;;;;;6.95;4.10;;;;;;;;;;5052600;28;20066;-76
2023/06/10 14:15:11;;;;;;;7.55;4.18;;;;;;;;;;5036912;28;20033;-77
2023/06/10 14:17:36;;;;;;;10.68;4.00;;;;;;;;;;5036945;28;20033;-76
2023/06/10 14:20:01;;;;;;;5.78;4.32;;;;;;;;;;5019144;28;20124;-77
2023/06/10 14:22:27;;;;;;;6.30;4.80;;;;;;;;;;5036878;28;20443;-77
2023/06/10 14:24:52;;;;;;;8.73;5.00;;;;;;;;;;5035154;28;20470;-76
2023/06/10 14:27:18;;;;;;;8.38;5.00;;;;;;;;;;5036477;28;20106;-76
2023/06/10 14:29:43;;;;;;;5.78;4.32;;;;;;;;;;5037010;28;20029;-75